sensor_id;sensor_type;location;lat;lon;timestamp;P1;durP1;ratioP1;P2;durP2;ratioP2
11305;SDS011;5708;50.660;6.778;2023-09-19T00:01:32;5.95;;;1.50;;
11305;SDS011;5708;50.660;6.778;2023-09-19T00:03:58;7.35;;;1.75;;
11305;SDS011;5708;50.660;6.778;2023-09-19T00:06:24;7.65;;;2.00;;
11305;SDS011;5708;50.660;6.778;2023-09-19T00:08:51;8.73;;;1.90;;
11305;SDS011;5708;50.660;6.778;2023-09-19T00:11:19;5.30;;;1.50;;
11305;SDS011;5708;50.660;6.778;2023-09-19T00:13:47;7.78;;;1.70;;
11305;SDS011;5708;50.660;6.778;2023-09-19T00:16:14;4.57;;;1.65;;
11305;SDS011;5708;50.660;6.778;2023-09-19T00:18:40;7.40;;;1.52;;
11305;SDS011;5708;50.660;6.778;2023-09-19T00:21:05;5.20;;;1.45;;
11305;SDS011;5708;50.660;6.778;2023-09-19T00:23:32;7.00;;;1.85;;
11305;SDS011;5708;50.660;6.778;2023-09-19T00:25:58;7.63;;;1.70;;
11305;SDS011;5708;50.660;6.778;2023-09-19T00:28:24;6.68;;;1.38;;
11305;SDS011;5708;50.660;6.778;2023-09-19T00:30:49;6.78;;;1.63;;
11305;SDS011;5708;50.660;6.778;2023-09-19T00:33:15;7.15;;;1.77;;
11305;SDS011;5708;50.660;6.778;2023-09-19T00:35:50;7.05;;;1.85;;
11305;SDS011;5708;50.660;6.778;2023-09-19T00:38:17;8.85;;;2.13;;
11305;SDS011;5708;50.660;6.778;2023-09-19T00:40:45;9.25;;;1.60;;
11305;SDS011;5708;50.660;6.778;2023-09-19T00:43:10;4.22;;;1.45;;
11305;SDS011;5708;50.660;6.778;2023-09-19T00:45:36;8.20;;;1.67;;
11305;SDS011;5708;50.660;6.778;2023-09-19T00:48:07;5.38;;;1.55;;
11305;SDS011;5708;50.660;6.778;2023-09-19T00:50:34;9.30;;;1.60;;
11305;SDS011;5708;50.660;6.778;2023-09-19T00:53:00;6.35;;;1.73;;
11305;SDS011;5708;50.660;6.778;2023-09-19T00:55:25;6.07;;;1.50;;
11305;SDS011;5708;50.660;6.778;2023-09-19T00:57:51;8.25;;;1.40;;
11305;SDS011;5708;50.660;6.778;2023-09-19T01:00:17;7.95;;;1.88;;
11305;SDS011;5708;50.660;6.778;2023-09-19T01:02:45;8.10;;;1.40;;
11305;SDS011;5708;50.660;6.778;2023-09-19T01:05:10;6.75;;;1.70;;
11305;SDS011;5708;50.660;6.778;2023-09-19T01:07:37;8.63;;;1.52;;
11305;SDS011;5708;50.660;6.778;2023-09-19T01:10:06;7.13;;;1.50;;
11305;SDS011;5708;50.660;6.778;2023-09-19T01:15:55;8.20;;;1.38;;
11305;SDS011;5708;50.660;6.778;2023-09-19T01:32:04;8.30;;;1.85;;
11305;SDS011;5708;50.660;6.778;2023-09-19T01:34:50;9.32;;;1.90;;
11305;SDS011;5708;50.660;6.778;2023-09-19T01:37:18;8.32;;;1.80;;
11305;SDS011;5708;50.660;6.778;2023-09-19T01:39:46;8.98;;;1.83;;
11305;SDS011;5708;50.660;6.778;2023-09-19T01:44:59;10.20;;;2.38;;
11305;SDS011;5708;50.660;6.778;2023-09-19T01:47:36;9.38;;;1.85;;
11305;SDS011;5708;50.660;6.778;2023-09-19T01:52:48;11.38;;;2.30;;
11305;SDS011;5708;50.660;6.778;2023-09-19T01:55:15;8.88;;;1.73;;
11305;SDS011;5708;50.660;6.778;2023-09-19T01:57:49;11.05;;;2.05;;
11305;SDS011;5708;50.660;6.778;2023-09-19T02:00:19;8.45;;;1.80;;
11305;SDS011;5708;50.660;6.778;2023-09-19T02:02:47;8.63;;;2.17;;
11305;SDS011;5708;50.660;6.778;2023-09-19T02:05:13;11.20;;;2.10;;
11305;SDS011;5708;50.660;6.778;2023-09-19T02:07:38;7.13;;;1.55;;
11305;SDS011;5708;50.660;6.778;2023-09-19T02:10:05;10.48;;;1.95;;
11305;SDS011;5708;50.660;6.778;2023-09-19T02:12:32;13.38;;;2.75;;
11305;SDS011;5708;50.660;6.778;2023-09-19T02:14:58;8.52;;;1.95;;
11305;SDS011;5708;50.660;6.778;2023-09-19T02:17:24;8.68;;;2.15;;
11305;SDS011;5708;50.660;6.778;2023-09-19T02:19:51;11.57;;;2.30;;
11305;SDS011;5708;50.660;6.778;2023-09-19T02:22:18;11.90;;;2.22;;
11305;SDS011;5708;50.660;6.778;2023-09-19T02:24:46;11.35;;;2.33;;
11305;SDS011;5708;50.660;6.778;2023-09-19T02:27:13;14.90;;;1.98;;
11305;SDS011;5708;50.660;6.778;2023-09-19T02:29:41;9.93;;;2.33;;
11305;SDS011;5708;50.660;6.778;2023-09-19T02:32:06;10.82;;;2.42;;
11305;SDS011;5708;50.660;6.778;2023-09-19T02:34:32;11.75;;;2.30;;
11305;SDS011;5708;50.660;6.778;2023-09-19T02:36:57;13.52;;;1.95;;
11305;SDS011;5708;50.660;6.778;2023-09-19T02:39:23;13.32;;;2.33;;
11305;SDS011;5708;50.660;6.778;2023-09-19T02:41:48;9.23;;;2.25;;
11305;SDS011;5708;50.660;6.778;2023-09-19T02:44:14;11.98;;;3.03;;
11305;SDS011;5708;50.660;6.778;2023-09-19T02:46:40;14.63;;;2.33;;
11305;SDS011;5708;50.660;6.778;2023-09-19T02:49:05;13.10;;;2.83;;
11305;SDS011;5708;50.660;6.778;2023-09-19T02:51:31;12.88;;;2.33;;
11305;SDS011;5708;50.660;6.778;2023-09-19T02:53:58;10.10;;;2.47;;
11305;SDS011;5708;50.660;6.778;2023-09-19T02:56:24;13.27;;;2.83;;
11305;SDS011;5708;50.660;6.778;2023-09-19T02:58:50;11.38;;;2.10;;
11305;SDS011;5708;50.660;6.778;2023-09-19T03:01:16;9.05;;;2.60;;
11305;SDS011;5708;50.660;6.778;2023-09-19T03:03:43;11.55;;;2.35;;
11305;SDS011;5708;50.660;6.778;2023-09-19T03:06:10;8.02;;;2.00;;
11305;SDS011;5708;50.660;6.778;2023-09-19T03:08:36;10.63;;;2.45;;
11305;SDS011;5708;50.660;6.778;2023-09-19T03:11:04;12.25;;;2.20;;
11305;SDS011;5708;50.660;6.778;2023-09-19T03:13:31;14.50;;;2.60;;
11305;SDS011;5708;50.660;6.778;2023-09-19T03:15:56;12.82;;;2.25;;
11305;SDS011;5708;50.660;6.778;2023-09-19T03:18:23;13.18;;;2.85;;
11305;SDS011;5708;50.660;6.778;2023-09-19T03:20:54;13.82;;;2.40;;
11305;SDS011;5708;50.660;6.778;2023-09-19T03:23:25;14.23;;;2.58;;
11305;SDS011;5708;50.660;6.778;2023-09-19T03:25:51;11.68;;;2.70;;
11305;SDS011;5708;50.660;6.778;2023-09-19T03:28:20;12.88;;;2.20;;
11305;SDS011;5708;50.660;6.778;2023-09-19T03:30:56;10.38;;;2.45;;
11305;SDS011;5708;50.660;6.778;2023-09-19T03:33:28;10.80;;;1.85;;
11305;SDS011;5708;50.660;6.778;2023-09-19T03:35:56;12.15;;;2.45;;
11305;SDS011;5708;50.660;6.778;2023-09-19T03:38:23;10.48;;;2.00;;
11305;SDS011;5708;50.660;6.778;2023-09-19T03:40:48;13.68;;;2.47;;
11305;SDS011;5708;50.660;6.778;2023-09-19T03:43:14;9.35;;;2.60;;
11305;SDS011;5708;50.660;6.778;2023-09-19T03:45:39;16.45;;;2.42;;
11305;SDS011;5708;50.660;6.778;2023-09-19T03:48:11;15.73;;;2.97;;
11305;SDS011;5708;50.660;6.778;2023-09-19T03:50:37;11.88;;;2.50;;
11305;SDS011;5708;50.660;6.778;2023-09-19T03:53:02;14.27;;;3.30;;
11305;SDS011;5708;50.660;6.778;2023-09-19T03:55:28;11.13;;;2.65;;
11305;SDS011;5708;50.660;6.778;2023-09-19T03:57:55;11.15;;;2.42;;
11305;SDS011;5708;50.660;6.778;2023-09-19T04:00:20;9.93;;;2.03;;
11305;SDS011;5708;50.660;6.778;2023-09-19T04:02:48;11.50;;;2.22;;
11305;SDS011;5708;50.660;6.778;2023-09-19T04:05:14;11.68;;;2.70;;
11305;SDS011;5708;50.660;6.778;2023-09-19T04:07:39;11.80;;;2.53;;
11305;SDS011;5708;50.660;6.778;2023-09-19T04:10:05;13.05;;;3.55;;
11305;SDS011;5708;50.660;6.778;2023-09-19T04:12:31;13.05;;;2.67;;
11305;SDS011;5708;50.660;6.778;2023-09-19T04:14:57;10.65;;;2.40;;
11305;SDS011;5708;50.660;6.778;2023-09-19T04:17:23;8.20;;;2.20;;
11305;SDS011;5708;50.660;6.778;2023-09-19T04:19:49;10.68;;;2.22;;
11305;SDS011;5708;50.660;6.778;2023-09-19T04:22:14;10.85;;;2.63;;
11305;SDS011;5708;50.660;6.778;2023-09-19T04:24:40;13.43;;;3.22;;
11305;SDS011;5708;50.660;6.778;2023-09-19T04:27:05;13.23;;;2.50;;
11305;SDS011;5708;50.660;6.778;2023-09-19T04:29:32;13.05;;;2.78;;
11305;SDS011;5708;50.660;6.778;2023-09-19T04:31:57;10.65;;;2.60;;
11305;SDS011;5708;50.660;6.778;2023-09-19T04:34:23;16.15;;;3.08;;
11305;SDS011;5708;50.660;6.778;2023-09-19T04:36:49;11.60;;;2.72;;
11305;SDS011;5708;50.660;6.778;2023-09-19T04:39:14;15.95;;;2.70;;
11305;SDS011;5708;50.660;6.778;2023-09-19T04:41:40;12.18;;;2.35;;
11305;SDS011;5708;50.660;6.778;2023-09-19T04:44:06;10.60;;;2.33;;
11305;SDS011;5708;50.660;6.778;2023-09-19T04:46:32;10.00;;;2.72;;
11305;SDS011;5708;50.660;6.778;2023-09-19T04:48:58;12.77;;;2.47;;
11305;SDS011;5708;50.660;6.778;2023-09-19T04:51:24;9.60;;;2.25;;
11305;SDS011;5708;50.660;6.778;2023-09-19T04:53:50;11.52;;;2.20;;
11305;SDS011;5708;50.660;6.778;2023-09-19T04:56:16;14.98;;;2.40;;
11305;SDS011;5708;50.660;6.778;2023-09-19T04:58:41;8.77;;;2.13;;
11305;SDS011;5708;50.660;6.778;2023-09-19T05:01:06;13.30;;;2.40;;
11305;SDS011;5708;50.660;6.778;2023-09-19T05:03:36;11.55;;;2.53;;
11305;SDS011;5708;50.660;6.778;2023-09-19T05:06:02;10.65;;;2.30;;
11305;SDS011;5708;50.660;6.778;2023-09-19T05:08:27;16.65;;;2.63;;
11305;SDS011;5708;50.660;6.778;2023-09-19T05:10:53;10.45;;;2.40;;
11305;SDS011;5708;50.660;6.778;2023-09-19T05:13:18;12.13;;;2.30;;
11305;SDS011;5708;50.660;6.778;2023-09-19T05:15:43;12.52;;;2.67;;
11305;SDS011;5708;50.660;6.778;2023-09-19T05:18:12;11.75;;;1.92;;
11305;SDS011;5708;50.660;6.778;2023-09-19T05:20:37;12.70;;;2.83;;
11305;SDS011;5708;50.660;6.778;2023-09-19T05:23:04;14.60;;;2.42;;
11305;SDS011;5708;50.660;6.778;2023-09-19T05:25:33;10.02;;;2.40;;
11305;SDS011;5708;50.660;6.778;2023-09-19T05:28:02;15.90;;;2.80;;
11305;SDS011;5708;50.660;6.778;2023-09-19T05:30:31;13.60;;;2.85;;
11305;SDS011;5708;50.660;6.778;2023-09-19T05:32:57;10.75;;;2.30;;
11305;SDS011;5708;50.660;6.778;2023-09-19T05:35:23;15.85;;;2.78;;
11305;SDS011;5708;50.660;6.778;2023-09-19T05:37:52;9.30;;;3.00;;
11305;SDS011;5708;50.660;6.778;2023-09-19T05:40:18;14.32;;;2.63;;
11305;SDS011;5708;50.660;6.778;2023-09-19T05:42:44;11.05;;;2.47;;
11305;SDS011;5708;50.660;6.778;2023-09-19T05:45:11;14.27;;;2.47;;
11305;SDS011;5708;50.660;6.778;2023-09-19T05:47:42;12.82;;;2.78;;
11305;SDS011;5708;50.660;6.778;2023-09-19T05:50:11;8.02;;;2.65;;
11305;SDS011;5708;50.660;6.778;2023-09-19T05:52:37;15.77;;;2.63;;
11305;SDS011;5708;50.660;6.778;2023-09-19T05:55:07;13.93;;;2.88;;
11305;SDS011;5708;50.660;6.778;2023-09-19T05:57:36;16.27;;;2.63;;
11305;SDS011;5708;50.660;6.778;2023-09-19T06:00:04;12.20;;;2.55;;
11305;SDS011;5708;50.660;6.778;2023-09-19T06:02:37;9.85;;;2.20;;
11305;SDS011;5708;50.660;6.778;2023-09-19T06:05:03;12.73;;;2.30;;
11305;SDS011;5708;50.660;6.778;2023-09-19T06:07:31;10.90;;;2.47;;
11305;SDS011;5708;50.660;6.778;2023-09-19T06:10:01;10.35;;;2.90;;
11305;SDS011;5708;50.660;6.778;2023-09-19T06:12:33;12.02;;;2.25;;
11305;SDS011;5708;50.660;6.778;2023-09-19T06:15:06;13.15;;;2.70;;
11305;SDS011;5708;50.660;6.778;2023-09-19T06:17:40;12.73;;;2.78;;
11305;SDS011;5708;50.660;6.778;2023-09-19T06:20:10;14.38;;;2.97;;
11305;SDS011;5708;50.660;6.778;2023-09-19T06:22:39;14.43;;;3.05;;
11305;SDS011;5708;50.660;6.778;2023-09-19T06:25:06;12.15;;;2.28;;
11305;SDS011;5708;50.660;6.778;2023-09-19T06:27:32;9.32;;;2.03;;
11305;SDS011;5708;50.660;6.778;2023-09-19T06:29:57;11.02;;;2.42;;
11305;SDS011;5708;50.660;6.778;2023-09-19T06:32:29;16.60;;;3.17;;
11305;SDS011;5708;50.660;6.778;2023-09-19T06:34:54;13.82;;;2.88;;
11305;SDS011;5708;50.660;6.778;2023-09-19T06:37:20;11.00;;;2.42;;
11305;SDS011;5708;50.660;6.778;2023-09-19T06:39:47;13.25;;;2.85;;
11305;SDS011;5708;50.660;6.778;2023-09-19T06:42:14;15.57;;;2.80;;
11305;SDS011;5708;50.660;6.778;2023-09-19T06:44:42;13.60;;;2.45;;
11305;SDS011;5708;50.660;6.778;2023-09-19T06:47:07;10.27;;;2.42;;
11305;SDS011;5708;50.660;6.778;2023-09-19T06:49:34;13.23;;;2.65;;
11305;SDS011;5708;50.660;6.778;2023-09-19T06:52:00;13.10;;;2.75;;
11305;SDS011;5708;50.660;6.778;2023-09-19T06:54:25;14.48;;;2.83;;
11305;SDS011;5708;50.660;6.778;2023-09-19T06:56:54;14.23;;;2.53;;
11305;SDS011;5708;50.660;6.778;2023-09-19T06:59:20;12.43;;;2.30;;
11305;SDS011;5708;50.660;6.778;2023-09-19T07:01:46;13.80;;;2.70;;
11305;SDS011;5708;50.660;6.778;2023-09-19T07:04:12;9.73;;;2.40;;
11305;SDS011;5708;50.660;6.778;2023-09-19T07:06:37;12.43;;;2.03;;
11305;SDS011;5708;50.660;6.778;2023-09-19T07:09:03;11.68;;;2.42;;
11305;SDS011;5708;50.660;6.778;2023-09-19T07:11:29;18.10;;;3.22;;
11305;SDS011;5708;50.660;6.778;2023-09-19T07:13:56;10.20;;;2.65;;
11305;SDS011;5708;50.660;6.778;2023-09-19T07:16:21;13.68;;;2.92;;
11305;SDS011;5708;50.660;6.778;2023-09-19T07:18:54;11.48;;;2.45;;
11305;SDS011;5708;50.660;6.778;2023-09-19T07:21:21;8.43;;;2.58;;
11305;SDS011;5708;50.660;6.778;2023-09-19T07:23:47;14.18;;;2.72;;
11305;SDS011;5708;50.660;6.778;2023-09-19T07:26:13;12.02;;;2.10;;
11305;SDS011;5708;50.660;6.778;2023-09-19T07:28:38;13.70;;;2.63;;
11305;SDS011;5708;50.660;6.778;2023-09-19T07:31:03;10.77;;;2.17;;
11305;SDS011;5708;50.660;6.778;2023-09-19T07:33:32;9.48;;;2.20;;
11305;SDS011;5708;50.660;6.778;2023-09-19T07:35:57;11.68;;;2.45;;
11305;SDS011;5708;50.660;6.778;2023-09-19T07:38:23;10.88;;;2.75;;
11305;SDS011;5708;50.660;6.778;2023-09-19T07:40:49;13.38;;;2.63;;
11305;SDS011;5708;50.660;6.778;2023-09-19T07:43:15;12.05;;;2.50;;
11305;SDS011;5708;50.660;6.778;2023-09-19T07:45:40;16.85;;;2.92;;
11305;SDS011;5708;50.660;6.778;2023-09-19T07:48:06;12.20;;;2.38;;
11305;SDS011;5708;50.660;6.778;2023-09-19T07:50:39;11.30;;;2.38;;
11305;SDS011;5708;50.660;6.778;2023-09-19T07:53:05;11.00;;;2.38;;
11305;SDS011;5708;50.660;6.778;2023-09-19T07:55:31;11.07;;;2.50;;
11305;SDS011;5708;50.660;6.778;2023-09-19T07:57:58;10.70;;;2.10;;
11305;SDS011;5708;50.660;6.778;2023-09-19T08:00:24;11.25;;;2.70;;
11305;SDS011;5708;50.660;6.778;2023-09-19T08:02:49;13.57;;;2.65;;
11305;SDS011;5708;50.660;6.778;2023-09-19T08:05:23;13.48;;;2.90;;
11305;SDS011;5708;50.660;6.778;2023-09-19T08:07:48;9.50;;;2.17;;
11305;SDS011;5708;50.660;6.778;2023-09-19T08:10:13;12.18;;;2.45;;
11305;SDS011;5708;50.660;6.778;2023-09-19T08:12:41;9.10;;;2.58;;
11305;SDS011;5708;50.660;6.778;2023-09-19T08:17:42;11.07;;;2.40;;
11305;SDS011;5708;50.660;6.778;2023-09-19T08:20:08;9.65;;;2.85;;
11305;SDS011;5708;50.660;6.778;2023-09-19T08:22:41;15.82;;;2.97;;
11305;SDS011;5708;50.660;6.778;2023-09-19T08:25:12;11.93;;;2.22;;
11305;SDS011;5708;50.660;6.778;2023-09-19T08:27:38;8.27;;;2.15;;
11305;SDS011;5708;50.660;6.778;2023-09-19T08:30:03;11.38;;;2.38;;
11305;SDS011;5708;50.660;6.778;2023-09-19T08:32:29;11.85;;;2.58;;
11305;SDS011;5708;50.660;6.778;2023-09-19T08:34:54;10.60;;;2.17;;
11305;SDS011;5708;50.660;6.778;2023-09-19T08:37:19;9.32;;;2.85;;
11305;SDS011;5708;50.660;6.778;2023-09-19T08:39:45;12.57;;;2.50;;
11305;SDS011;5708;50.660;6.778;2023-09-19T08:42:11;9.43;;;2.08;;
11305;SDS011;5708;50.660;6.778;2023-09-19T08:44:37;13.05;;;2.33;;
11305;SDS011;5708;50.660;6.778;2023-09-19T08:47:14;8.85;;;2.15;;
11305;SDS011;5708;50.660;6.778;2023-09-19T08:52:22;10.35;;;2.28;;
11305;SDS011;5708;50.660;6.778;2023-09-19T08:54:52;11.77;;;2.60;;
11305;SDS011;5708;50.660;6.778;2023-09-19T08:57:18;8.77;;;2.35;;
11305;SDS011;5708;50.660;6.778;2023-09-19T08:59:47;8.25;;;1.75;;
11305;SDS011;5708;50.660;6.778;2023-09-19T09:02:16;12.00;;;2.20;;
11305;SDS011;5708;50.660;6.778;2023-09-19T09:04:44;13.27;;;2.63;;
11305;SDS011;5708;50.660;6.778;2023-09-19T09:07:11;9.43;;;2.05;;
11305;SDS011;5708;50.660;6.778;2023-09-19T09:09:38;8.55;;;2.17;;
11305;SDS011;5708;50.660;6.778;2023-09-19T09:12:07;9.10;;;2.10;;
11305;SDS011;5708;50.660;6.778;2023-09-19T09:14:34;9.38;;;2.08;;
11305;SDS011;5708;50.660;6.778;2023-09-19T09:16:59;12.43;;;2.38;;
11305;SDS011;5708;50.660;6.778;2023-09-19T09:19:26;10.65;;;2.30;;
11305;SDS011;5708;50.660;6.778;2023-09-19T09:21:51;7.50;;;1.90;;
11305;SDS011;5708;50.660;6.778;2023-09-19T09:24:26;10.38;;;2.45;;
11305;SDS011;5708;50.660;6.778;2023-09-19T09:26:55;10.57;;;2.13;;
11305;SDS011;5708;50.660;6.778;2023-09-19T09:29:41;8.80;;;2.13;;
11305;SDS011;5708;50.660;6.778;2023-09-19T09:34:57;10.57;;;2.35;;
11305;SDS011;5708;50.660;6.778;2023-09-19T09:37:23;11.90;;;2.50;;
11305;SDS011;5708;50.660;6.778;2023-09-19T09:42:39;7.68;;;1.80;;
11305;SDS011;5708;50.660;6.778;2023-09-19T09:45:18;10.60;;;2.55;;
11305;SDS011;5708;50.660;6.778;2023-09-19T09:47:53;6.50;;;1.67;;
11305;SDS011;5708;50.660;6.778;2023-09-19T09:50:25;7.72;;;1.85;;
11305;SDS011;5708;50.660;6.778;2023-09-19T09:53:20;8.82;;;2.08;;
11305;SDS011;5708;50.660;6.778;2023-09-19T09:56:10;6.47;;;2.00;;
11305;SDS011;5708;50.660;6.778;2023-09-19T09:58:50;9.32;;;2.00;;
11305;SDS011;5708;50.660;6.778;2023-09-19T10:01:24;8.85;;;2.00;;
11305;SDS011;5708;50.660;6.778;2023-09-19T10:03:52;7.25;;;2.00;;
11305;SDS011;5708;50.660;6.778;2023-09-19T10:06:22;9.65;;;2.10;;
11305;SDS011;5708;50.660;6.778;2023-09-19T10:09:00;9.50;;;2.08;;
11305;SDS011;5708;50.660;6.778;2023-09-19T10:11:45;7.32;;;1.85;;
11305;SDS011;5708;50.660;6.778;2023-09-19T10:14:22;8.93;;;2.10;;
11305;SDS011;5708;50.660;6.778;2023-09-19T10:16:50;8.93;;;1.83;;
11305;SDS011;5708;50.660;6.778;2023-09-19T10:19:37;8.93;;;2.05;;
11305;SDS011;5708;50.660;6.778;2023-09-19T10:22:11;9.27;;;1.95;;
11305;SDS011;5708;50.660;6.778;2023-09-19T10:24:39;5.93;;;1.95;;
11305;SDS011;5708;50.660;6.778;2023-09-19T10:27:06;9.23;;;1.98;;
11305;SDS011;5708;50.660;6.778;2023-09-19T10:29:34;8.55;;;2.20;;
11305;SDS011;5708;50.660;6.778;2023-09-19T10:32:01;12.27;;;2.67;;
11305;SDS011;5708;50.660;6.778;2023-09-19T10:34:31;9.27;;;2.17;;
11305;SDS011;5708;50.660;6.778;2023-09-19T10:37:00;7.15;;;1.80;;
11305;SDS011;5708;50.660;6.778;2023-09-19T10:39:30;6.57;;;2.10;;
11305;SDS011;5708;50.660;6.778;2023-09-19T10:41:57;7.15;;;1.88;;
11305;SDS011;5708;50.660;6.778;2023-09-19T10:44:30;6.85;;;1.63;;
11305;SDS011;5708;50.660;6.778;2023-09-19T10:46:57;7.72;;;2.00;;
11305;SDS011;5708;50.660;6.778;2023-09-19T10:49:22;8.15;;;2.13;;
11305;SDS011;5708;50.660;6.778;2023-09-19T10:51:50;10.60;;;2.75;;
11305;SDS011;5708;50.660;6.778;2023-09-19T10:54:20;7.22;;;1.90;;
11305;SDS011;5708;50.660;6.778;2023-09-19T10:56:52;7.80;;;1.83;;
11305;SDS011;5708;50.660;6.778;2023-09-19T10:59:19;7.22;;;1.88;;
11305;SDS011;5708;50.660;6.778;2023-09-19T11:04:26;10.95;;;2.53;;
11305;SDS011;5708;50.660;6.778;2023-09-19T11:09:45;7.05;;;1.88;;
11305;SDS011;5708;50.660;6.778;2023-09-19T11:12:11;9.88;;;2.00;;
11305;SDS011;5708;50.660;6.778;2023-09-19T11:14:38;11.35;;;2.17;;
11305;SDS011;5708;50.660;6.778;2023-09-19T11:30:34;7.95;;;1.48;;
11305;SDS011;5708;50.660;6.778;2023-09-19T11:43:53;6.95;;;1.58;;
11305;SDS011;5708;50.660;6.778;2023-09-19T11:46:26;7.93;;;2.00;;
11305;SDS011;5708;50.660;6.778;2023-09-19T11:48:53;9.55;;;1.80;;
11305;SDS011;5708;50.660;6.778;2023-09-19T11:51:23;8.38;;;1.95;;
11305;SDS011;5708;50.660;6.778;2023-09-19T11:53:52;8.48;;;2.20;;
11305;SDS011;5708;50.660;6.778;2023-09-19T11:56:23;10.02;;;2.35;;
11305;SDS011;5708;50.660;6.778;2023-09-19T11:58:51;6.90;;;2.08;;
11305;SDS011;5708;50.660;6.778;2023-09-19T12:01:24;7.82;;;1.92;;
11305;SDS011;5708;50.660;6.778;2023-09-19T12:03:54;10.05;;;2.25;;
11305;SDS011;5708;50.660;6.778;2023-09-19T12:06:22;8.85;;;1.70;;
11305;SDS011;5708;50.660;6.778;2023-09-19T12:08:48;6.97;;;2.13;;
11305;SDS011;5708;50.660;6.778;2023-09-19T12:11:18;11.60;;;2.15;;
11305;SDS011;5708;50.660;6.778;2023-09-19T12:13:45;6.82;;;1.80;;
11305;SDS011;5708;50.660;6.778;2023-09-19T12:16:18;9.32;;;2.00;;
11305;SDS011;5708;50.660;6.778;2023-09-19T12:18:47;6.65;;;1.75;;
11305;SDS011;5708;50.660;6.778;2023-09-19T12:21:21;11.32;;;1.70;;
11305;SDS011;5708;50.660;6.778;2023-09-19T12:26:29;8.00;;;1.65;;
11305;SDS011;5708;50.660;6.778;2023-09-19T12:28:59;7.72;;;1.70;;
11305;SDS011;5708;50.660;6.778;2023-09-19T12:31:26;5.15;;;1.63;;
11305;SDS011;5708;50.660;6.778;2023-09-19T12:33:55;4.75;;;1.30;;
11305;SDS011;5708;50.660;6.778;2023-09-19T12:36:21;4.70;;;1.48;;
11305;SDS011;5708;50.660;6.778;2023-09-19T12:38:55;8.40;;;1.63;;
11305;SDS011;5708;50.660;6.778;2023-09-19T12:41:21;8.70;;;1.73;;
11305;SDS011;5708;50.660;6.778;2023-09-19T12:43:47;6.25;;;1.70;;
11305;SDS011;5708;50.660;6.778;2023-09-19T12:46:13;8.25;;;1.60;;
11305;SDS011;5708;50.660;6.778;2023-09-19T12:48:40;7.80;;;1.60;;
11305;SDS011;5708;50.660;6.778;2023-09-19T12:51:12;9.70;;;1.50;;
11305;SDS011;5708;50.660;6.778;2023-09-19T12:56:07;8.55;;;1.60;;
11305;SDS011;5708;50.660;6.778;2023-09-19T12:58:35;5.95;;;1.33;;
11305;SDS011;5708;50.660;6.778;2023-09-19T13:01:14;7.88;;;1.50;;
11305;SDS011;5708;50.660;6.778;2023-09-19T13:03:40;7.57;;;1.70;;
11305;SDS011;5708;50.660;6.778;2023-09-19T13:06:05;6.93;;;1.23;;
11305;SDS011;5708;50.660;6.778;2023-09-19T13:08:37;5.45;;;1.50;;
11305;SDS011;5708;50.660;6.778;2023-09-19T13:11:14;4.78;;;1.35;;
11305;SDS011;5708;50.660;6.778;2023-09-19T13:16:13;6.00;;;1.27;;
11305;SDS011;5708;50.660;6.778;2023-09-19T13:18:43;5.05;;;1.30;;
11305;SDS011;5708;50.660;6.778;2023-09-19T13:21:13;5.22;;;1.27;;
11305;SDS011;5708;50.660;6.778;2023-09-19T13:23:52;6.65;;;1.30;;
11305;SDS011;5708;50.660;6.778;2023-09-19T13:26:19;3.72;;;0.90;;
11305;SDS011;5708;50.660;6.778;2023-09-19T13:28:45;4.55;;;1.20;;
11305;SDS011;5708;50.660;6.778;2023-09-19T13:31:12;5.80;;;1.25;;
11305;SDS011;5708;50.660;6.778;2023-09-19T13:33:48;5.05;;;1.30;;
11305;SDS011;5708;50.660;6.778;2023-09-19T13:36:14;5.32;;;0.82;;
11305;SDS011;5708;50.660;6.778;2023-09-19T13:38:40;5.22;;;1.20;;
11305;SDS011;5708;50.660;6.778;2023-09-19T13:41:07;7.93;;;1.48;;
11305;SDS011;5708;50.660;6.778;2023-09-19T13:43:35;4.30;;;1.10;;
11305;SDS011;5708;50.660;6.778;2023-09-19T13:46:01;7.45;;;1.23;;
11305;SDS011;5708;50.660;6.778;2023-09-19T13:48:27;9.38;;;1.20;;
11305;SDS011;5708;50.660;6.778;2023-09-19T13:50:54;8.18;;;1.38;;
11305;SDS011;5708;50.660;6.778;2023-09-19T13:53:20;4.13;;;0.98;;
11305;SDS011;5708;50.660;6.778;2023-09-19T13:55:46;5.63;;;1.08;;
11305;SDS011;5708;50.660;6.778;2023-09-19T13:58:12;5.72;;;1.27;;
11305;SDS011;5708;50.660;6.778;2023-09-19T14:00:38;7.28;;;1.30;;
11305;SDS011;5708;50.660;6.778;2023-09-19T14:03:03;3.60;;;0.90;;
11305;SDS011;5708;50.660;6.778;2023-09-19T14:05:29;5.22;;;1.13;;
11305;SDS011;5708;50.660;6.778;2023-09-19T14:07:55;4.72;;;1.15;;
11305;SDS011;5708;50.660;6.778;2023-09-19T14:10:22;4.35;;;1.10;;
11305;SDS011;5708;50.660;6.778;2023-09-19T14:12:48;4.53;;;1.20;;
11305;SDS011;5708;50.660;6.778;2023-09-19T14:15:13;6.18;;;1.30;;
11305;SDS011;5708;50.660;6.778;2023-09-19T14:17:39;5.95;;;1.40;;
11305;SDS011;5708;50.660;6.778;2023-09-19T14:20:07;4.20;;;1.05;;
11305;SDS011;5708;50.660;6.778;2023-09-19T14:22:35;3.92;;;1.15;;
11305;SDS011;5708;50.660;6.778;2023-09-19T14:25:01;6.75;;;1.13;;
11305;SDS011;5708;50.660;6.778;2023-09-19T14:27:27;4.28;;;1.10;;
11305;SDS011;5708;50.660;6.778;2023-09-19T14:29:53;4.97;;;1.05;;
11305;SDS011;5708;50.660;6.778;2023-09-19T14:32:18;4.45;;;1.20;;
11305;SDS011;5708;50.660;6.778;2023-09-19T14:34:44;5.20;;;1.20;;
11305;SDS011;5708;50.660;6.778;2023-09-19T14:37:09;4.68;;;1.08;;
11305;SDS011;5708;50.660;6.778;2023-09-19T14:39:36;3.70;;;1.05;;
11305;SDS011;5708;50.660;6.778;2023-09-19T14:42:03;3.55;;;0.98;;
11305;SDS011;5708;50.660;6.778;2023-09-19T14:44:29;4.47;;;1.17;;
11305;SDS011;5708;50.660;6.778;2023-09-19T14:46:55;4.82;;;1.10;;
11305;SDS011;5708;50.660;6.778;2023-09-19T14:49:20;4.95;;;1.20;;
11305;SDS011;5708;50.660;6.778;2023-09-19T14:51:46;6.13;;;1.05;;
11305;SDS011;5708;50.660;6.778;2023-09-19T14:54:13;3.92;;;0.75;;
11305;SDS011;5708;50.660;6.778;2023-09-19T14:56:41;5.63;;;1.08;;
11305;SDS011;5708;50.660;6.778;2023-09-19T14:59:07;5.45;;;1.30;;
11305;SDS011;5708;50.660;6.778;2023-09-19T15:01:32;6.20;;;1.15;;
11305;SDS011;5708;50.660;6.778;2023-09-19T15:03:58;5.82;;;1.42;;
11305;SDS011;5708;50.660;6.778;2023-09-19T15:06:25;5.28;;;1.30;;
11305;SDS011;5708;50.660;6.778;2023-09-19T15:08:51;3.50;;;1.00;;
11305;SDS011;5708;50.660;6.778;2023-09-19T15:11:17;5.30;;;1.58;;
11305;SDS011;5708;50.660;6.778;2023-09-19T15:13:43;3.53;;;1.10;;
11305;SDS011;5708;50.660;6.778;2023-09-19T15:16:09;3.72;;;1.00;;
11305;SDS011;5708;50.660;6.778;2023-09-19T15:18:36;4.05;;;1.10;;
11305;SDS011;5708;50.660;6.778;2023-09-19T15:21:03;4.68;;;1.30;;
11305;SDS011;5708;50.660;6.778;2023-09-19T15:23:29;4.32;;;1.20;;
11305;SDS011;5708;50.660;6.778;2023-09-19T15:25:59;5.03;;;1.08;;
11305;SDS011;5708;50.660;6.778;2023-09-19T15:28:26;3.95;;;0.90;;
11305;SDS011;5708;50.660;6.778;2023-09-19T15:33:32;6.32;;;1.10;;
11305;SDS011;5708;50.660;6.778;2023-09-19T15:38:31;5.05;;;1.30;;
11305;SDS011;5708;50.660;6.778;2023-09-19T15:41:00;7.63;;;1.65;;
11305;SDS011;5708;50.660;6.778;2023-09-19T15:43:25;4.13;;;1.20;;
11305;SDS011;5708;50.660;6.778;2023-09-19T15:45:51;4.13;;;1.30;;
11305;SDS011;5708;50.660;6.778;2023-09-19T15:48:17;4.35;;;1.25;;
11305;SDS011;5708;50.660;6.778;2023-09-19T15:50:43;3.90;;;1.23;;
11305;SDS011;5708;50.660;6.778;2023-09-19T15:53:09;5.13;;;1.40;;
11305;SDS011;5708;50.660;6.778;2023-09-19T15:55:40;6.50;;;1.05;;
11305;SDS011;5708;50.660;6.778;2023-09-19T15:58:06;5.28;;;1.17;;
11305;SDS011;5708;50.660;6.778;2023-09-19T16:00:32;6.05;;;1.23;;
11305;SDS011;5708;50.660;6.778;2023-09-19T16:03:01;4.25;;;0.88;;
11305;SDS011;5708;50.660;6.778;2023-09-19T16:05:27;5.95;;;1.30;;
11305;SDS011;5708;50.660;6.778;2023-09-19T16:07:53;8.13;;;1.20;;
11305;SDS011;5708;50.660;6.778;2023-09-19T16:10:18;5.03;;;1.50;;
11305;SDS011;5708;50.660;6.778;2023-09-19T16:12:44;4.18;;;1.20;;
11305;SDS011;5708;50.660;6.778;2023-09-19T16:15:09;3.90;;;1.08;;